sensor_id;sensor_type;location;lat;lon;timestamp;P1;durP1;ratioP1;P2;durP2;ratioP2
3571;SDS011;7958;53.024;12.970;2023-12-07T00:00:54;44.40;;;15.97;;
3571;SDS011;7958;53.024;12.970;2023-12-07T00:03:20;56.97;;;17.97;;
3571;SDS011;7958;53.024;12.970;2023-12-07T00:05:47;63.60;;;17.80;;
3571;SDS011;7958;53.024;12.970;2023-12-07T00:08:13;61.80;;;18.90;;
3571;SDS011;7958;53.024;12.970;2023-12-07T00:10:39;69.57;;;17.23;;
3571;SDS011;7958;53.024;12.970;2023-12-07T00:13:07;125.60;;;24.17;;
3571;SDS011;7958;53.024;12.970;2023-12-07T00:15:34;56.43;;;17.87;;
3571;SDS011;7958;53.024;12.970;2023-12-07T00:18:00;85.60;;;17.70;;
3571;SDS011;7958;53.024;12.970;2023-12-07T00:20:28;53.10;;;16.67;;
3571;SDS011;7958;53.024;12.970;2023-12-07T00:22:54;80.47;;;18.77;;
3571;SDS011;7958;53.024;12.970;2023-12-07T00:25:21;60.13;;;17.23;;
3571;SDS011;7958;53.024;12.970;2023-12-07T00:27:48;62.00;;;18.13;;
3571;SDS011;7958;53.024;12.970;2023-12-07T00:30:16;50.63;;;16.77;;
3571;SDS011;7958;53.024;12.970;2023-12-07T00:32:42;47.60;;;17.93;;
3571;SDS011;7958;53.024;12.970;2023-12-07T00:35:09;59.83;;;16.10;;
3571;SDS011;7958;53.024;12.970;2023-12-07T00:37:35;56.37;;;16.40;;
3571;SDS011;7958;53.024;12.970;2023-12-07T00:40:02;54.37;;;17.47;;
3571;SDS011;7958;53.024;12.970;2023-12-07T00:42:29;52.97;;;17.27;;
3571;SDS011;7958;53.024;12.970;2023-12-07T00:44:55;45.83;;;15.83;;
3571;SDS011;7958;53.024;12.970;2023-12-07T00:47:23;49.00;;;16.00;;
3571;SDS011;7958;53.024;12.970;2023-12-07T00:49:50;65.90;;;19.17;;
3571;SDS011;7958;53.024;12.970;2023-12-07T00:52:16;43.70;;;16.60;;
3571;SDS011;7958;53.024;12.970;2023-12-07T00:54:43;58.57;;;16.80;;
3571;SDS011;7958;53.024;12.970;2023-12-07T00:57:09;92.40;;;19.13;;
3571;SDS011;7958;53.024;12.970;2023-12-07T00:59:35;52.43;;;16.13;;
3571;SDS011;7958;53.024;12.970;2023-12-07T01:02:02;50.17;;;16.97;;
3571;SDS011;7958;53.024;12.970;2023-12-07T01:04:31;55.87;;;17.20;;
3571;SDS011;7958;53.024;12.970;2023-12-07T01:06:58;56.10;;;17.20;;
3571;SDS011;7958;53.024;12.970;2023-12-07T01:09:24;49.60;;;16.10;;
3571;SDS011;7958;53.024;12.970;2023-12-07T01:11:51;51.20;;;16.50;;
3571;SDS011;7958;53.024;12.970;2023-12-07T01:14:18;52.13;;;17.03;;
3571;SDS011;7958;53.024;12.970;2023-12-07T01:16:44;53.77;;;16.27;;
3571;SDS011;7958;53.024;12.970;2023-12-07T01:19:11;52.13;;;17.60;;
3571;SDS011;7958;53.024;12.970;2023-12-07T01:21:40;60.83;;;18.00;;
3571;SDS011;7958;53.024;12.970;2023-12-07T01:24:07;61.43;;;18.23;;
3571;SDS011;7958;53.024;12.970;2023-12-07T01:26:33;46.43;;;17.00;;
3571;SDS011;7958;53.024;12.970;2023-12-07T01:28:59;52.53;;;16.87;;
3571;SDS011;7958;53.024;12.970;2023-12-07T01:31:26;54.17;;;16.23;;
3571;SDS011;7958;53.024;12.970;2023-12-07T01:33:52;54.20;;;17.83;;
3571;SDS011;7958;53.024;12.970;2023-12-07T01:36:19;54.50;;;17.63;;
3571;SDS011;7958;53.024;12.970;2023-12-07T01:38:46;54.20;;;16.87;;
3571;SDS011;7958;53.024;12.970;2023-12-07T01:41:13;61.77;;;18.83;;
3571;SDS011;7958;53.024;12.970;2023-12-07T01:43:44;72.00;;;19.43;;
3571;SDS011;7958;53.024;12.970;2023-12-07T01:46:11;59.37;;;18.27;;
3571;SDS011;7958;53.024;12.970;2023-12-07T01:48:37;52.33;;;18.43;;
3571;SDS011;7958;53.024;12.970;2023-12-07T01:51:03;59.80;;;18.73;;
3571;SDS011;7958;53.024;12.970;2023-12-07T01:53:30;55.43;;;17.53;;
3571;SDS011;7958;53.024;12.970;2023-12-07T01:55:57;69.63;;;20.10;;
3571;SDS011;7958;53.024;12.970;2023-12-07T01:58:24;61.10;;;18.07;;
3571;SDS011;7958;53.024;12.970;2023-12-07T02:00:51;55.07;;;16.90;;
3571;SDS011;7958;53.024;12.970;2023-12-07T02:03:16;55.77;;;18.00;;
3571;SDS011;7958;53.024;12.970;2023-12-07T02:05:43;60.70;;;18.33;;
3571;SDS011;7958;53.024;12.970;2023-12-07T02:08:12;54.50;;;17.40;;
3571;SDS011;7958;53.024;12.970;2023-12-07T02:10:39;60.03;;;17.50;;
3571;SDS011;7958;53.024;12.970;2023-12-07T02:13:07;69.20;;;20.00;;
3571;SDS011;7958;53.024;12.970;2023-12-07T02:15:34;65.27;;;18.53;;
3571;SDS011;7958;53.024;12.970;2023-12-07T02:18:02;68.40;;;19.30;;
3571;SDS011;7958;53.024;12.970;2023-12-07T02:20:36;74.43;;;20.30;;
3571;SDS011;7958;53.024;12.970;2023-12-07T02:23:04;65.87;;;18.97;;
3571;SDS011;7958;53.024;12.970;2023-12-07T02:25:35;70.37;;;19.17;;
3571;SDS011;7958;53.024;12.970;2023-12-07T02:28:04;79.87;;;20.20;;
3571;SDS011;7958;53.024;12.970;2023-12-07T02:30:30;100.93;;;21.47;;
3571;SDS011;7958;53.024;12.970;2023-12-07T02:32:56;68.17;;;18.37;;
3571;SDS011;7958;53.024;12.970;2023-12-07T02:35:23;65.87;;;20.80;;
3571;SDS011;7958;53.024;12.970;2023-12-07T02:40:35;61.57;;;18.90;;
3571;SDS011;7958;53.024;12.970;2023-12-07T02:43:09;58.00;;;18.90;;
3571;SDS011;7958;53.024;12.970;2023-12-07T02:45:36;60.20;;;19.30;;
3571;SDS011;7958;53.024;12.970;2023-12-07T02:48:02;60.23;;;18.87;;
3571;SDS011;7958;53.024;12.970;2023-12-07T02:50:29;52.33;;;17.63;;
3571;SDS011;7958;53.024;12.970;2023-12-07T02:52:55;63.87;;;19.33;;
3571;SDS011;7958;53.024;12.970;2023-12-07T02:55:22;142.27;;;25.63;;
3571;SDS011;7958;53.024;12.970;2023-12-07T02:57:48;52.77;;;17.20;;
3571;SDS011;7958;53.024;12.970;2023-12-07T03:00:17;69.53;;;19.60;;
3571;SDS011;7958;53.024;12.970;2023-12-07T03:02:45;73.03;;;20.80;;
3571;SDS011;7958;53.024;12.970;2023-12-07T03:05:12;62.10;;;19.57;;
3571;SDS011;7958;53.024;12.970;2023-12-07T03:07:40;56.97;;;18.63;;
3571;SDS011;7958;53.024;12.970;2023-12-07T03:10:07;73.10;;;21.60;;
3571;SDS011;7958;53.024;12.970;2023-12-07T03:12:34;55.03;;;20.40;;
3571;SDS011;7958;53.024;12.970;2023-12-07T03:15:00;71.80;;;20.30;;
3571;SDS011;7958;53.024;12.970;2023-12-07T03:17:29;51.83;;;19.60;;
3571;SDS011;7958;53.024;12.970;2023-12-07T03:19:55;75.50;;;19.80;;
3571;SDS011;7958;53.024;12.970;2023-12-07T03:22:24;60.53;;;18.90;;
3571;SDS011;7958;53.024;12.970;2023-12-07T03:24:51;56.53;;;18.17;;
3571;SDS011;7958;53.024;12.970;2023-12-07T03:27:20;74.87;;;20.53;;
3571;SDS011;7958;53.024;12.970;2023-12-07T03:29:46;65.27;;;19.20;;
3571;SDS011;7958;53.024;12.970;2023-12-07T03:32:13;59.40;;;19.17;;
3571;SDS011;7958;53.024;12.970;2023-12-07T03:34:41;68.67;;;19.67;;
3571;SDS011;7958;53.024;12.970;2023-12-07T03:37:07;91.83;;;21.27;;
3571;SDS011;7958;53.024;12.970;2023-12-07T03:39:34;65.30;;;20.30;;
3571;SDS011;7958;53.024;12.970;2023-12-07T03:42:00;67.80;;;19.93;;
3571;SDS011;7958;53.024;12.970;2023-12-07T03:44:26;105.33;;;22.17;;
3571;SDS011;7958;53.024;12.970;2023-12-07T03:46:53;51.80;;;18.23;;
3571;SDS011;7958;53.024;12.970;2023-12-07T03:49:19;58.70;;;20.17;;
3571;SDS011;7958;53.024;12.970;2023-12-07T03:51:47;60.97;;;19.40;;
3571;SDS011;7958;53.024;12.970;2023-12-07T03:54:13;78.60;;;20.40;;
3571;SDS011;7958;53.024;12.970;2023-12-07T03:56:39;65.83;;;20.37;;
3571;SDS011;7958;53.024;12.970;2023-12-07T03:59:06;57.43;;;20.87;;
3571;SDS011;7958;53.024;12.970;2023-12-07T04:01:33;70.33;;;21.70;;
3571;SDS011;7958;53.024;12.970;2023-12-07T04:03:59;92.97;;;21.03;;
3571;SDS011;7958;53.024;12.970;2023-12-07T04:06:25;64.50;;;18.77;;
3571;SDS011;7958;53.024;12.970;2023-12-07T04:08:54;61.60;;;19.53;;
3571;SDS011;7958;53.024;12.970;2023-12-07T04:11:20;60.50;;;18.70;;
3571;SDS011;7958;53.024;12.970;2023-12-07T04:13:50;58.57;;;19.57;;
3571;SDS011;7958;53.024;12.970;2023-12-07T04:16:16;53.23;;;18.57;;
3571;SDS011;7958;53.024;12.970;2023-12-07T04:18:43;66.73;;;19.87;;
3571;SDS011;7958;53.024;12.970;2023-12-07T04:21:09;47.00;;;17.53;;
3571;SDS011;7958;53.024;12.970;2023-12-07T04:23:35;45.63;;;16.83;;
3571;SDS011;7958;53.024;12.970;2023-12-07T04:26:05;54.53;;;18.43;;
3571;SDS011;7958;53.024;12.970;2023-12-07T04:28:31;54.60;;;19.40;;
3571;SDS011;7958;53.024;12.970;2023-12-07T04:30:58;64.13;;;19.83;;
3571;SDS011;7958;53.024;12.970;2023-12-07T04:33:24;51.23;;;17.80;;
3571;SDS011;7958;53.024;12.970;2023-12-07T04:35:51;56.47;;;18.67;;
3571;SDS011;7958;53.024;12.970;2023-12-07T04:38:17;49.27;;;18.70;;
3571;SDS011;7958;53.024;12.970;2023-12-07T04:40:43;52.00;;;17.53;;
3571;SDS011;7958;53.024;12.970;2023-12-07T04:43:11;54.53;;;18.40;;
3571;SDS011;7958;53.024;12.970;2023-12-07T04:45:37;57.03;;;17.57;;
3571;SDS011;7958;53.024;12.970;2023-12-07T04:48:04;61.90;;;17.67;;
3571;SDS011;7958;53.024;12.970;2023-12-07T04:50:31;60.57;;;18.00;;
3571;SDS011;7958;53.024;12.970;2023-12-07T04:52:57;68.30;;;19.20;;
3571;SDS011;7958;53.024;12.970;2023-12-07T04:55:24;64.50;;;19.67;;
3571;SDS011;7958;53.024;12.970;2023-12-07T04:57:51;71.87;;;19.27;;
3571;SDS011;7958;53.024;12.970;2023-12-07T05:00:19;80.37;;;20.00;;
3571;SDS011;7958;53.024;12.970;2023-12-07T05:02:46;64.87;;;19.97;;
3571;SDS011;7958;53.024;12.970;2023-12-07T05:05:12;48.83;;;18.00;;
3571;SDS011;7958;53.024;12.970;2023-12-07T05:07:39;58.70;;;18.10;;
3571;SDS011;7958;53.024;12.970;2023-12-07T05:10:06;51.40;;;18.60;;
3571;SDS011;7958;53.024;12.970;2023-12-07T05:12:34;56.70;;;17.60;;
3571;SDS011;7958;53.024;12.970;2023-12-07T05:15:00;49.93;;;17.20;;
3571;SDS011;7958;53.024;12.970;2023-12-07T05:17:29;61.10;;;18.90;;
3571;SDS011;7958;53.024;12.970;2023-12-07T05:19:55;63.53;;;18.47;;
3571;SDS011;7958;53.024;12.970;2023-12-07T05:22:21;50.30;;;17.60;;
3571;SDS011;7958;53.024;12.970;2023-12-07T05:24:48;49.63;;;16.87;;
3571;SDS011;7958;53.024;12.970;2023-12-07T05:27:15;56.97;;;18.43;;
3571;SDS011;7958;53.024;12.970;2023-12-07T05:29:41;61.97;;;18.57;;
3571;SDS011;7958;53.024;12.970;2023-12-07T05:32:08;54.77;;;17.33;;
3571;SDS011;7958;53.024;12.970;2023-12-07T05:34:36;41.90;;;17.07;;
3571;SDS011;7958;53.024;12.970;2023-12-07T05:37:02;46.43;;;17.40;;
3571;SDS011;7958;53.024;12.970;2023-12-07T05:39:30;46.23;;;17.30;;
3571;SDS011;7958;53.024;12.970;2023-12-07T05:41:56;56.07;;;18.23;;
3571;SDS011;7958;53.024;12.970;2023-12-07T05:44:23;50.53;;;16.40;;
3571;SDS011;7958;53.024;12.970;2023-12-07T05:46:49;58.90;;;17.93;;
3571;SDS011;7958;53.024;12.970;2023-12-07T05:49:16;46.87;;;16.97;;
3571;SDS011;7958;53.024;12.970;2023-12-07T05:51:43;52.67;;;17.10;;
3571;SDS011;7958;53.024;12.970;2023-12-07T05:54:10;75.43;;;19.20;;
3571;SDS011;7958;53.024;12.970;2023-12-07T05:56:36;47.70;;;18.60;;
3571;SDS011;7958;53.024;12.970;2023-12-07T05:59:03;63.77;;;21.10;;
3571;SDS011;7958;53.024;12.970;2023-12-07T06:01:29;65.93;;;22.33;;
3571;SDS011;7958;53.024;12.970;2023-12-07T06:03:55;65.23;;;23.20;;
3571;SDS011;7958;53.024;12.970;2023-12-07T06:06:22;52.47;;;23.00;;
3571;SDS011;7958;53.024;12.970;2023-12-07T06:08:49;69.47;;;20.80;;
3571;SDS011;7958;53.024;12.970;2023-12-07T06:11:16;58.37;;;19.00;;
3571;SDS011;7958;53.024;12.970;2023-12-07T06:13:42;53.23;;;19.27;;
3571;SDS011;7958;53.024;12.970;2023-12-07T06:16:11;56.80;;;18.63;;
3571;SDS011;7958;53.024;12.970;2023-12-07T06:18:40;58.10;;;17.83;;
3571;SDS011;7958;53.024;12.970;2023-12-07T06:21:07;50.67;;;18.10;;
3571;SDS011;7958;53.024;12.970;2023-12-07T06:23:37;46.30;;;16.70;;
3571;SDS011;7958;53.024;12.970;2023-12-07T06:26:05;61.93;;;18.77;;
3571;SDS011;7958;53.024;12.970;2023-12-07T06:28:32;50.13;;;17.10;;
3571;SDS011;7958;53.024;12.970;2023-12-07T06:30:59;45.67;;;17.43;;
3571;SDS011;7958;53.024;12.970;2023-12-07T06:33:30;49.30;;;16.20;;
3571;SDS011;7958;53.024;12.970;2023-12-07T06:35:56;51.93;;;16.63;;
3571;SDS011;7958;53.024;12.970;2023-12-07T06:38:22;49.00;;;16.90;;
3571;SDS011;7958;53.024;12.970;2023-12-07T06:40:49;51.67;;;17.40;;
3571;SDS011;7958;53.024;12.970;2023-12-07T06:43:17;59.80;;;18.40;;
3571;SDS011;7958;53.024;12.970;2023-12-07T06:45:43;43.37;;;15.47;;
3571;SDS011;7958;53.024;12.970;2023-12-07T06:48:09;42.80;;;15.83;;
3571;SDS011;7958;53.024;12.970;2023-12-07T06:50:36;50.50;;;17.27;;
3571;SDS011;7958;53.024;12.970;2023-12-07T06:53:03;42.50;;;16.13;;
3571;SDS011;7958;53.024;12.970;2023-12-07T06:55:29;42.43;;;17.03;;
3571;SDS011;7958;53.024;12.970;2023-12-07T06:57:55;43.07;;;16.80;;
3571;SDS011;7958;53.024;12.970;2023-12-07T07:00:23;46.53;;;17.13;;
3571;SDS011;7958;53.024;12.970;2023-12-07T07:02:50;41.90;;;17.50;;
3571;SDS011;7958;53.024;12.970;2023-12-07T07:05:17;48.83;;;16.57;;
3571;SDS011;7958;53.024;12.970;2023-12-07T07:07:44;48.23;;;16.80;;
3571;SDS011;7958;53.024;12.970;2023-12-07T07:10:11;47.53;;;17.83;;
3571;SDS011;7958;53.024;12.970;2023-12-07T07:12:37;37.63;;;15.50;;
3571;SDS011;7958;53.024;12.970;2023-12-07T07:15:05;38.40;;;16.43;;
3571;SDS011;7958;53.024;12.970;2023-12-07T07:17:34;45.27;;;17.57;;
3571;SDS011;7958;53.024;12.970;2023-12-07T07:20:01;43.47;;;16.23;;
3571;SDS011;7958;53.024;12.970;2023-12-07T07:22:27;39.07;;;15.77;;
3571;SDS011;7958;53.024;12.970;2023-12-07T07:24:54;51.90;;;17.00;;
3571;SDS011;7958;53.024;12.970;2023-12-07T07:27:20;46.00;;;17.00;;
3571;SDS011;7958;53.024;12.970;2023-12-07T07:29:46;44.70;;;16.73;;
3571;SDS011;7958;53.024;12.970;2023-12-07T07:32:13;38.40;;;16.20;;
3571;SDS011;7958;53.024;12.970;2023-12-07T07:34:42;40.87;;;16.50;;
3571;SDS011;7958;53.024;12.970;2023-12-07T07:37:08;39.27;;;16.33;;
3571;SDS011;7958;53.024;12.970;2023-12-07T07:39:35;37.43;;;15.20;;
3571;SDS011;7958;53.024;12.970;2023-12-07T07:42:01;44.03;;;16.70;;
3571;SDS011;7958;53.024;12.970;2023-12-07T07:44:27;43.80;;;16.20;;
3571;SDS011;7958;53.024;12.970;2023-12-07T07:46:54;44.63;;;15.20;;
3571;SDS011;7958;53.024;12.970;2023-12-07T07:49:20;41.23;;;16.40;;
3571;SDS011;7958;53.024;12.970;2023-12-07T07:51:48;40.27;;;16.83;;
3571;SDS011;7958;53.024;12.970;2023-12-07T07:54:16;41.30;;;16.60;;
3571;SDS011;7958;53.024;12.970;2023-12-07T07:56:42;35.73;;;16.10;;
3571;SDS011;7958;53.024;12.970;2023-12-07T07:59:09;44.40;;;15.60;;
3571;SDS011;7958;53.024;12.970;2023-12-07T08:01:36;45.30;;;15.87;;
3571;SDS011;7958;53.024;12.970;2023-12-07T08:04:03;42.50;;;17.60;;
3571;SDS011;7958;53.024;12.970;2023-12-07T08:06:29;42.60;;;15.23;;
3571;SDS011;7958;53.024;12.970;2023-12-07T08:08:57;39.53;;;15.53;;
3571;SDS011;7958;53.024;12.970;2023-12-07T08:11:23;37.73;;;15.87;;
3571;SDS011;7958;53.024;12.970;2023-12-07T08:13:50;38.33;;;15.77;;
3571;SDS011;7958;53.024;12.970;2023-12-07T08:16:16;38.83;;;15.10;;
3571;SDS011;7958;53.024;12.970;2023-12-07T08:18:43;39.50;;;15.80;;
3571;SDS011;7958;53.024;12.970;2023-12-07T08:21:17;39.60;;;15.17;;
3571;SDS011;7958;53.024;12.970;2023-12-07T08:23:44;38.23;;;16.77;;
3571;SDS011;7958;53.024;12.970;2023-12-07T08:26:12;30.30;;;13.97;;
3571;SDS011;7958;53.024;12.970;2023-12-07T08:28:39;41.10;;;15.73;;
3571;SDS011;7958;53.024;12.970;2023-12-07T08:31:05;34.47;;;14.43;;
3571;SDS011;7958;53.024;12.970;2023-12-07T08:33:32;37.40;;;15.30;;
3571;SDS011;7958;53.024;12.970;2023-12-07T08:36:00;41.77;;;15.07;;
3571;SDS011;7958;53.024;12.970;2023-12-07T08:38:26;33.53;;;14.67;;
3571;SDS011;7958;53.024;12.970;2023-12-07T08:40:52;30.43;;;14.50;;
3571;SDS011;7958;53.024;12.970;2023-12-07T08:43:21;36.10;;;15.33;;
3571;SDS011;7958;53.024;12.970;2023-12-07T08:45:48;38.17;;;14.10;;
3571;SDS011;7958;53.024;12.970;2023-12-07T08:48:14;30.83;;;14.83;;
3571;SDS011;7958;53.024;12.970;2023-12-07T08:50:41;30.00;;;14.17;;
3571;SDS011;7958;53.024;12.970;2023-12-07T08:53:08;35.27;;;13.80;;
3571;SDS011;7958;53.024;12.970;2023-12-07T08:55:34;30.23;;;12.73;;
3571;SDS011;7958;53.024;12.970;2023-12-07T08:58:00;31.00;;;13.60;;
3571;SDS011;7958;53.024;12.970;2023-12-07T09:00:30;29.47;;;12.93;;
3571;SDS011;7958;53.024;12.970;2023-12-07T09:02:57;30.20;;;13.50;;
3571;SDS011;7958;53.024;12.970;2023-12-07T09:05:23;31.90;;;13.60;;
3571;SDS011;7958;53.024;12.970;2023-12-07T09:07:50;31.07;;;13.30;;
3571;SDS011;7958;53.024;12.970;2023-12-07T09:10:17;31.30;;;14.43;;
3571;SDS011;7958;53.024;12.970;2023-12-07T09:12:44;33.23;;;13.93;;
3571;SDS011;7958;53.024;12.970;2023-12-07T09:15:10;35.73;;;14.37;;
3571;SDS011;7958;53.024;12.970;2023-12-07T09:17:38;29.13;;;14.83;;
3571;SDS011;7958;53.024;12.970;2023-12-07T09:20:06;34.77;;;14.97;;
3571;SDS011;7958;53.024;12.970;2023-12-07T09:22:36;26.37;;;13.77;;
3571;SDS011;7958;53.024;12.970;2023-12-07T09:25:04;27.77;;;12.77;;
3571;SDS011;7958;53.024;12.970;2023-12-07T09:27:32;27.20;;;13.13;;
3571;SDS011;7958;53.024;12.970;2023-12-07T09:29:59;27.87;;;12.77;;
3571;SDS011;7958;53.024;12.970;2023-12-07T09:32:26;30.17;;;13.77;;
3571;SDS011;7958;53.024;12.970;2023-12-07T09:34:54;26.07;;;12.70;;
3571;SDS011;7958;53.024;12.970;2023-12-07T09:37:21;22.70;;;12.33;;
3571;SDS011;7958;53.024;12.970;2023-12-07T09:39:47;25.63;;;12.50;;
3571;SDS011;7958;53.024;12.970;2023-12-07T09:42:14;31.17;;;13.97;;
3571;SDS011;7958;53.024;12.970;2023-12-07T09:44:40;24.57;;;12.67;;
3571;SDS011;7958;53.024;12.970;2023-12-07T09:47:06;30.23;;;13.43;;
3571;SDS011;7958;53.024;12.970;2023-12-07T09:49:33;24.40;;;12.23;;
3571;SDS011;7958;53.024;12.970;2023-12-07T09:52:01;23.50;;;11.33;;
3571;SDS011;7958;53.024;12.970;2023-12-07T09:54:29;25.10;;;12.40;;
3571;SDS011;7958;53.024;12.970;2023-12-07T09:56:56;25.63;;;12.47;;
3571;SDS011;7958;53.024;12.970;2023-12-07T09:59:22;23.87;;;11.97;;
3571;SDS011;7958;53.024;12.970;2023-12-07T10:01:49;24.47;;;12.23;;
3571;SDS011;7958;53.024;12.970;2023-12-07T10:04:15;30.30;;;13.70;;
3571;SDS011;7958;53.024;12.970;2023-12-07T10:06:43;24.77;;;11.33;;
3571;SDS011;7958;53.024;12.970;2023-12-07T10:09:11;22.17;;;10.67;;
3571;SDS011;7958;53.024;12.970;2023-12-07T10:11:38;23.47;;;11.97;;
3571;SDS011;7958;53.024;12.970;2023-12-07T10:14:04;29.20;;;12.50;;
3571;SDS011;7958;53.024;12.970;2023-12-07T10:16:32;28.63;;;13.03;;
3571;SDS011;7958;53.024;12.970;2023-12-07T10:19:02;25.83;;;11.97;;
3571;SDS011;7958;53.024;12.970;2023-12-07T10:21:39;27.13;;;12.23;;
3571;SDS011;7958;53.024;12.970;2023-12-07T10:24:05;28.60;;;12.70;;
3571;SDS011;7958;53.024;12.970;2023-12-07T10:26:33;24.87;;;12.27;;
3571;SDS011;7958;53.024;12.970;2023-12-07T10:29:01;29.67;;;12.90;;
3571;SDS011;7958;53.024;12.970;2023-12-07T10:31:27;28.37;;;12.53;;
3571;SDS011;7958;53.024;12.970;2023-12-07T10:33:56;26.33;;;11.40;;
3571;SDS011;7958;53.024;12.970;2023-12-07T10:36:22;31.27;;;13.93;;
3571;SDS011;7958;53.024;12.970;2023-12-07T10:38:49;29.20;;;12.90;;
3571;SDS011;7958;53.024;12.970;2023-12-07T10:41:17;24.37;;;12.10;;
3571;SDS011;7958;53.024;12.970;2023-12-07T10:43:48;25.17;;;11.93;;
3571;SDS011;7958;53.024;12.970;2023-12-07T10:46:15;27.17;;;12.90;;
3571;SDS011;7958;53.024;12.970;2023-12-07T10:48:42;32.37;;;12.33;;
3571;SDS011;7958;53.024;12.970;2023-12-07T10:51:10;38.53;;;14.07;;
3571;SDS011;7958;53.024;12.970;2023-12-07T10:53:40;32.03;;;14.50;;
3571;SDS011;7958;53.024;12.970;2023-12-07T10:56:09;26.97;;;12.33;;
3571;SDS011;7958;53.024;12.970;2023-12-07T10:58:36;34.80;;;13.40;;
3571;SDS011;7958;53.024;12.970;2023-12-07T11:01:05;29.73;;;13.40;;
3571;SDS011;7958;53.024;12.970;2023-12-07T11:03:33;32.43;;;13.20;;
3571;SDS011;7958;53.024;12.970;2023-12-07T11:06:02;34.53;;;15.07;;
3571;SDS011;7958;53.024;12.970;2023-12-07T11:08:31;32.07;;;14.37;;
3571;SDS011;7958;53.024;12.970;2023-12-07T11:11:03;28.10;;;12.80;;
3571;SDS011;7958;53.024;12.970;2023-12-07T11:13:32;34.40;;;15.30;;
3571;SDS011;7958;53.024;12.970;2023-12-07T11:16:01;29.10;;;12.77;;
3571;SDS011;7958;53.024;12.970;2023-12-07T11:18:30;31.03;;;13.77;;
3571;SDS011;7958;53.024;12.970;2023-12-07T11:20:57;32.03;;;13.60;;
3571;SDS011;7958;53.024;12.970;2023-12-07T11:23:24;39.17;;;16.77;;
3571;SDS011;7958;53.024;12.970;2023-12-07T11:25:53;36.03;;;13.83;;
3571;SDS011;7958;53.024;12.970;2023-12-07T11:28:21;34.03;;;13.77;;
3571;SDS011;7958;53.024;12.970;2023-12-07T11:31:00;34.07;;;14.70;;
3571;SDS011;7958;53.024;12.970;2023-12-07T11:33:27;32.07;;;14.93;;
3571;SDS011;7958;53.024;12.970;2023-12-07T11:36:03;34.43;;;14.77;;
3571;SDS011;7958;53.024;12.970;2023-12-07T11:38:29;34.37;;;14.20;;
3571;SDS011;7958;53.024;12.970;2023-12-07T11:40:56;32.83;;;13.63;;
3571;SDS011;7958;53.024;12.970;2023-12-07T11:43:30;29.90;;;14.20;;
3571;SDS011;7958;53.024;12.970;2023-12-07T11:46:03;33.37;;;14.07;;
3571;SDS011;7958;53.024;12.970;2023-12-07T11:48:31;39.90;;;15.67;;
3571;SDS011;7958;53.024;12.970;2023-12-07T11:50:57;35.87;;;14.57;;
3571;SDS011;7958;53.024;12.970;2023-12-07T11:53:24;33.97;;;14.00;;
3571;SDS011;7958;53.024;12.970;2023-12-07T11:55:51;34.40;;;15.30;;
3571;SDS011;7958;53.024;12.970;2023-12-07T11:58:18;38.90;;;16.10;;
3571;SDS011;7958;53.024;12.970;2023-12-07T12:00:45;30.50;;;14.97;;
3571;SDS011;7958;53.024;12.970;2023-12-07T12:03:12;33.37;;;14.33;;
3571;SDS011;7958;53.024;12.970;2023-12-07T12:05:40;30.57;;;14.33;;
3571;SDS011;7958;53.024;12.970;2023-12-07T12:08:08;38.40;;;15.70;;
3571;SDS011;7958;53.024;12.970;2023-12-07T12:10:34;29.27;;;13.73;;
3571;SDS011;7958;53.024;12.970;2023-12-07T12:13:01;37.17;;;14.67;;
3571;SDS011;7958;53.024;12.970;2023-12-07T12:15:28;33.73;;;14.93;;
3571;SDS011;7958;53.024;12.970;2023-12-07T12:17:55;38.37;;;16.40;;
3571;SDS011;7958;53.024;12.970;2023-12-07T12:20:21;35.27;;;15.90;;
3571;SDS011;7958;53.024;12.970;2023-12-07T12:22:49;36.20;;;15.67;;
3571;SDS011;7958;53.024;12.970;2023-12-07T12:25:15;35.47;;;14.90;;
3571;SDS011;7958;53.024;12.970;2023-12-07T12:27:42;46.27;;;17.27;;
3571;SDS011;7958;53.024;12.970;2023-12-07T12:30:09;44.03;;;16.37;;
3571;SDS011;7958;53.024;12.970;2023-12-07T12:32:41;37.00;;;16.30;;
3571;SDS011;7958;53.024;12.970;2023-12-07T12:35:08;38.40;;;15.57;;
3571;SDS011;7958;53.024;12.970;2023-12-07T12:37:36;36.17;;;16.10;;
3571;SDS011;7958;53.024;12.970;2023-12-07T12:40:06;39.37;;;17.40;;
3571;SDS011;7958;53.024;12.970;2023-12-07T12:42:33;37.47;;;16.37;;
3571;SDS011;7958;53.024;12.970;2023-12-07T12:44:59;34.10;;;15.60;;
3571;SDS011;7958;53.024;12.970;2023-12-07T12:47:26;41.97;;;16.57;;
3571;SDS011;7958;53.024;12.970;2023-12-07T12:49:52;38.87;;;16.30;;
3571;SDS011;7958;53.024;12.970;2023-12-07T12:52:18;37.87;;;16.57;;
3571;SDS011;7958;53.024;12.970;2023-12-07T12:54:45;40.50;;;17.93;;
3571;SDS011;7958;53.024;12.970;2023-12-07T12:57:12;41.67;;;17.73;;
3571;SDS011;7958;53.024;12.970;2023-12-07T12:59:39;48.00;;;17.80;;
3571;SDS011;7958;53.024;12.970;2023-12-07T13:02:06;51.83;;;20.40;;
3571;SDS011;7958;53.024;12.970;2023-12-07T13:04:34;46.53;;;20.20;;
3571;SDS011;7958;53.024;12.970;2023-12-07T13:07:00;48.80;;;23.90;;
3571;SDS011;7958;53.024;12.970;2023-12-07T13:09:26;60.57;;;23.47;;
3571;SDS011;7958;53.024;12.970;2023-12-07T13:11:53;41.50;;;19.13;;
3571;SDS011;7958;53.024;12.970;2023-12-07T13:14:21;51.90;;;18.40;;
3571;SDS011;7958;53.024;12.970;2023-12-07T13:16:48;45.33;;;19.07;;
3571;SDS011;7958;53.024;12.970;2023-12-07T13:19:15;42.97;;;17.40;;
3571;SDS011;7958;53.024;12.970;2023-12-07T13:21:41;47.20;;;17.43;;
3571;SDS011;7958;53.024;12.970;2023-12-07T13:24:08;50.80;;;18.90;;
3571;SDS011;7958;53.024;12.970;2023-12-07T13:26:37;52.33;;;19.10;;
3571;SDS011;7958;53.024;12.970;2023-12-07T13:29:04;47.70;;;18.90;;
3571;SDS011;7958;53.024;12.970;2023-12-07T13:31:31;42.20;;;17.27;;
3571;SDS011;7958;53.024;12.970;2023-12-07T13:33:58;55.90;;;18.67;;
3571;SDS011;7958;53.024;12.970;2023-12-07T13:36:24;66.50;;;20.47;;
3571;SDS011;7958;53.024;12.970;2023-12-07T13:38:53;59.70;;;18.77;;
3571;SDS011;7958;53.024;12.970;2023-12-07T13:41:19;55.87;;;19.20;;
3571;SDS011;7958;53.024;12.970;2023-12-07T13:43:47;58.90;;;18.57;;
3571;SDS011;7958;53.024;12.970;2023-12-07T13:46:15;59.20;;;19.67;;
3571;SDS011;7958;53.024;12.970;2023-12-07T13:48:43;64.17;;;20.00;;
3571;SDS011;7958;53.024;12.970;2023-12-07T13:51:10;55.10;;;21.00;;
3571;SDS011;7958;53.024;12.970;2023-12-07T13:53:37;52.93;;;17.77;;
3571;SDS011;7958;53.024;12.970;2023-12-07T13:56:04;50.33;;;17.23;;
3571;SDS011;7958;53.024;12.970;2023-12-07T13:58:32;47.73;;;17.70;;
3571;SDS011;7958;53.024;12.970;2023-12-07T14:00:59;50.20;;;18.87;;
3571;SDS011;7958;53.024;12.970;2023-12-07T14:03:26;54.17;;;19.40;;
3571;SDS011;7958;53.024;12.970;2023-12-07T14:05:54;50.87;;;17.33;;
3571;SDS011;7958;53.024;12.970;2023-12-07T14:08:21;50.43;;;17.27;;
3571;SDS011;7958;53.024;12.970;2023-12-07T14:10:47;58.30;;;18.33;;
3571;SDS011;7958;53.024;12.970;2023-12-07T14:13:14;51.10;;;19.33;;
3571;SDS011;7958;53.024;12.970;2023-12-07T14:15:42;44.23;;;17.10;;
3571;SDS011;7958;53.024;12.970;2023-12-07T14:18:09;49.60;;;18.83;;
3571;SDS011;7958;53.024;12.970;2023-12-07T14:20:35;47.93;;;16.90;;
3571;SDS011;7958;53.024;12.970;2023-12-07T14:23:03;46.80;;;17.90;;
3571;SDS011;7958;53.024;12.970;2023-12-07T14:25:30;43.60;;;16.63;;
3571;SDS011;7958;53.024;12.970;2023-12-07T14:27:56;53.77;;;18.40;;
3571;SDS011;7958;53.024;12.970;2023-12-07T14:30:23;53.77;;;18.10;;
3571;SDS011;7958;53.024;12.970;2023-12-07T14:32:49;49.67;;;18.77;;
3571;SDS011;7958;53.024;12.970;2023-12-07T14:35:17;48.03;;;17.63;;